Time;durP1;ratioP1;P1;durP2;ratioP2;P2;SDS_P1;SDS_P2;PMS_P1;PMS_P2;Temp;Humidity;BMP_temperature;BMP_pressure;BME280_temperature;BME280_humidity;BME280_pressure;Samples;Min_cycle;Max_cycle;Signal;HPM_P1;HPM_P2
2022/07/04 00:01:58;;;;;;;10.75;7.22;;;;;;;21.80;96.94;100940.58;1641438;87;21093;-74
2022/07/04 00:04:25;;;;;;;13.35;7.35;;;;;;;21.68;98.36;100942.92;1608402;89;21028;-74
2022/07/04 00:06:55;;;;;;;11.10;6.90;;;;;;;21.71;98.23;100940.03;1614614;87;21035;-73
2022/07/04 00:09:24;;;;;;;11.88;7.05;;;;;;;21.75;98.37;100945.36;1643785;86;21194;-74
2022/07/04 00:11:53;;;;;;;12.05;7.40;;;;;;;21.73;98.74;100945.97;1657275;86;21095;-73
2022/07/04 00:14:20;;;;;;;9.73;7.40;;;;;;;21.68;98.88;100941.13;1608573;89;21084;-75
2022/07/04 00:16:49;;;;;;;17.17;7.30;;;;;;;21.74;98.47;100944.54;1619811;87;21141;-75
2022/07/04 00:19:16;;;;;;;12.60;7.47;;;;;;;21.80;97.47;100944.51;1622869;87;21147;-75
2022/07/04 00:21:43;;;;;;;10.48;7.00;;;;;;;21.72;97.90;100949.08;1646070;86;21184;-72
2022/07/04 00:24:12;;;;;;;12.03;7.70;;;;;;;21.55;98.54;100947.03;1646770;86;21189;-73
2022/07/04 00:26:39;;;;;;;13.60;7.45;;;;;;;21.58;98.73;100948.92;1608343;89;21118;-72
2022/07/04 00:29:06;;;;;;;11.85;7.25;;;;;;;21.45;99.09;100941.75;1619568;87;21054;-73
2022/07/04 00:31:35;;;;;;;14.23;7.58;;;;;;;21.37;100.00;100948.05;1602496;88;21090;-73
2022/07/04 00:34:03;;;;;;;13.72;8.08;;;;;;;21.46;99.88;100947.33;1652537;85;21602;-73
2022/07/04 00:36:32;;;;;;;10.58;7.28;;;;;;;21.48;99.88;100949.34;1652789;85;21078;-73
2022/07/04 00:38:59;;;;;;;11.73;7.58;;;;;;;21.48;100.00;100947.20;1649415;86;21108;-72
2022/07/04 00:41:26;;;;;;;13.78;7.92;;;;;;;21.51;100.00;100954.80;1638958;86;21022;-72
2022/07/04 00:44:08;;;;;;;14.43;8.40;;;;;;;21.53;100.00;100948.95;1645223;86;21070;-73
2022/07/04 00:46:36;;;;;;;10.35;7.67;;;;;;;21.56;100.00;100948.22;1650730;85;21121;-74
2022/07/04 00:49:05;;;;;;;15.00;8.00;;;;;;;21.59;99.15;100945.36;1644874;86;21067;-74
2022/07/04 00:51:33;;;;;;;13.58;8.35;;;;;;;21.55;99.43;100952.27;1608450;89;21051;-74
2022/07/04 00:54:01;;;;;;;11.78;7.67;;;;;;;21.56;99.97;100957.39;1620305;87;21090;-73
2022/07/04 00:56:28;;;;;;;11.63;7.80;;;;;;;21.63;99.57;100951.15;1599496;88;21055;-73
2022/07/04 00:58:58;;;;;;;9.58;7.00;;;;;;;21.57;100.00;100952.52;1605071;88;21086;-74
2022/07/04 01:01:26;;;;;;;12.85;7.22;;;;;;;21.57;100.00;100958.21;1671021;85;21092;-73
2022/07/04 01:03:54;;;;;;;13.40;7.90;;;;;;;21.33;100.00;100952.73;1608314;89;21075;-73
2022/07/04 01:06:22;;;;;;;14.93;7.60;;;;;;;21.43;100.00;100954.60;1607242;88;21064;-73
2022/07/04 01:08:50;;;;;;;12.78;7.60;;;;;;;21.48;100.00;100946.72;1609784;88;21028;-73
2022/07/04 01:11:18;;;;;;;14.05;7.25;;;;;;;21.52;100.00;100945.51;1619561;88;21066;-72
2022/07/04 01:13:45;;;;;;;12.10;7.33;;;;;;;21.47;100.00;100945.08;1618665;88;21094;-72
2022/07/04 01:16:13;;;;;;;13.32;7.03;;;;;;;21.47;100.00;100945.53;1650498;85;21121;-73
2022/07/04 01:18:40;;;;;;;10.05;7.15;;;;;;;21.48;100.00;100944.10;1646015;85;21191;-74
2022/07/04 01:21:09;;;;;;;12.25;7.65;;;;;;;21.46;99.28;100950.44;1608178;87;21163;-73
2022/07/04 01:23:41;;;;;;;12.98;7.87;;;;;;;21.38;99.86;100953.16;1620223;87;21074;-74
2022/07/04 01:26:08;;;;;;;12.00;7.50;;;;;;;21.38;98.87;100950.55;1646708;86;21066;-74
2022/07/04 01:28:36;;;;;;;13.85;10.23;;;;;;;21.25;100.00;100951.22;1630677;86;21085;-73
2022/07/04 01:31:04;;;;;;;18.48;11.68;;;;;;;21.13;100.00;100953.05;1642487;87;21518;-74
2022/07/04 01:33:33;;;;;;;18.75;12.45;;;;;;;21.13;100.00;100954.84;1648946;86;21070;-74
2022/07/04 01:36:00;;;;;;;16.97;10.53;;;;;;;21.06;100.00;100953.67;1643827;85;21069;-73
2022/07/04 01:38:28;;;;;;;14.75;10.18;;;;;;;21.04;100.00;100952.96;1644757;85;21509;-73
2022/07/04 01:40:55;;;;;;;14.47;9.50;;;;;;;20.94;100.00;100960.23;1648323;85;21061;-73
2022/07/04 01:43:22;;;;;;;16.37;8.65;;;;;;;20.98;100.00;100959.03;1645353;86;21073;-73
2022/07/04 01:45:50;;;;;;;17.15;8.70;;;;;;;21.10;100.00;100959.01;1649002;85;21085;-73
2022/07/04 01:48:17;;;;;;;13.93;8.58;;;;;;;21.07;100.00;100967.12;1651104;86;21059;-73
2022/07/04 01:50:44;;;;;;;15.15;8.63;;;;;;;21.10;100.00;100960.31;1646987;87;21097;-74
2022/07/04 01:53:11;;;;;;;13.62;7.92;;;;;;;21.13;100.00;100960.08;1608237;89;21083;-73
2022/07/04 01:55:38;;;;;;;14.05;8.30;;;;;;;21.21;100.00;100961.59;1618604;87;21073;-73
2022/07/04 01:58:05;;;;;;;12.95;7.75;;;;;;;21.35;98.98;100959.98;1607625;88;21098;-73
2022/07/04 02:03:19;;;;;;;16.57;8.33;;;;;;;21.35;99.38;100958.67;1650257;85;21074;-73
2022/07/04 02:05:46;;;;;;;13.13;8.23;;;;;;;21.33;99.87;100965.83;1649534;85;21044;-73
2022/07/04 02:08:13;;;;;;;15.65;8.33;;;;;;;21.31;99.86;100969.50;1657907;86;21467;-73
2022/07/04 02:10:40;;;;;;;15.45;8.15;;;;;;;21.30;99.81;100962.62;1642940;86;21058;-73
2022/07/04 02:13:09;;;;;;;14.35;8.55;;;;;;;21.36;99.76;100971.28;1608333;89;21096;-74
2022/07/04 02:15:43;;;;;;;13.13;8.40;;;;;;;21.35;99.56;100966.53;1621453;87;21227;-73
2022/07/04 02:18:13;;;;;;;17.77;8.50;;;;;;;21.33;99.84;100963.66;1675795;84;21104;-73
2022/07/04 02:20:40;;;;;;;15.38;8.95;;;;;;;21.43;99.58;100969.83;1656085;85;21547;-73
2022/07/04 02:23:07;;;;;;;17.57;8.35;;;;;;;21.36;99.07;100966.86;1641236;87;21075;-74
2022/07/04 02:25:36;;;;;;;12.40;7.95;;;;;;;21.46;99.25;100966.15;1654177;86;21102;-74
2022/07/04 02:28:05;;;;;;;16.55;8.38;;;;;;;21.60;98.38;100970.58;1643208;86;21073;-73
2022/07/04 02:30:33;;;;;;;13.43;8.43;;;;;;;21.63;97.98;100968.17;1608313;89;21098;-73
2022/07/04 02:33:01;;;;;;;16.20;8.15;;;;;;;21.68;97.83;100968.64;1621446;87;21097;-73
2022/07/04 02:35:28;;;;;;;12.98;8.03;;;;;;;21.75;97.69;100977.62;1612404;86;21049;-73
2022/07/04 02:37:55;;;;;;;13.20;7.97;;;;;;;21.87;96.98;100976.27;1608906;88;21055;-74
2022/07/04 02:40:22;;;;;;;13.68;8.00;;;;;;;21.82;95.77;100976.66;1620634;87;21088;-73
2022/07/04 02:42:50;;;;;;;13.03;8.28;;;;;;;21.78;95.56;100982.63;1652230;86;21049;-74
2022/07/04 02:45:17;;;;;;;14.83;8.43;;;;;;;21.88;94.99;100977.91;1649251;86;21086;-74
2022/07/04 02:47:45;;;;;;;14.30;7.72;;;;;;;21.73;95.18;100978.23;1663657;85;21058;-74
2022/07/04 02:50:12;;;;;;;14.53;7.78;;;;;;;21.79;95.62;100982.14;1608573;89;21155;-74
2022/07/04 02:52:40;;;;;;;13.25;8.10;;;;;;;21.88;95.36;100984.45;1662191;85;21072;-74
2022/07/04 02:55:08;;;;;;;16.07;8.60;;;;;;;25.53;76.59;100979.04;1663999;85;21090;-74
2022/07/04 02:57:37;;;;;;;15.83;8.93;;;;;;;25.63;73.27;100980.27;1672900;86;21536;-73
2022/07/04 03:00:06;;;;;;;18.87;9.38;;;;;;;25.64;72.52;100979.77;1659551;86;21064;-74
2022/07/04 03:02:34;;;;;;;17.10;9.15;;;;;;;25.37;72.70;100985.50;1660076;86;21058;-73
2022/07/04 03:05:02;;;;;;;18.57;9.15;;;;;;;22.80;81.12;100989.67;1609990;88;21095;-74
2022/07/04 03:07:30;;;;;;;19.92;8.88;;;;;;;22.84;87.07;100988.93;1620643;87;21063;-74
2022/07/04 03:09:59;;;;;;;18.67;8.80;;;;;;;25.14;78.69;100986.41;1619058;87;21098;-74
2022/07/04 03:12:27;;;;;;;17.67;8.95;;;;;;;22.60;87.05;100987.48;1650285;85;21526;-74
2022/07/04 03:14:54;;;;;;;21.35;9.43;;;;;;;23.01;87.94;100985.63;1639120;87;21059;-74
2022/07/04 03:17:23;;;;;;;17.90;9.63;;;;;;;22.54;90.77;100982.29;1665704;85;21085;-74
2022/07/04 03:19:50;;;;;;;17.32;9.38;;;;;;;22.56;91.07;100985.61;1649704;86;21144;-73
2022/07/04 03:22:19;;;;;;;18.98;9.20;;;;;;;22.66;91.18;100984.33;1608614;87;21112;-74
2022/07/04 03:24:46;;;;;;;21.60;8.58;;;;;;;22.71;91.82;100982.60;1644750;85;21104;-73
2022/07/04 03:27:13;;;;;;;18.80;8.18;;;;;;;22.73;91.73;100985.46;1672004;85;21073;-74
2022/07/04 03:29:40;;;;;;;17.98;9.50;;;;;;;23.68;92.65;100983.98;1656719;85;21070;-74
2022/07/04 03:32:08;;;;;;;22.10;9.65;;;;;;;22.94;91.38;100982.72;1649393;85;21365;-74
2022/07/04 03:34:35;;;;;;;21.25;8.95;;;;;;;23.10;90.97;100981.39;1608774;89;21110;-74
2022/07/04 03:37:03;;;;;;;19.98;9.65;;;;;;;23.20;90.71;100973.85;1620769;87;21061;-74
2022/07/04 03:39:32;;;;;;;19.35;9.15;;;;;;;23.31;90.08;100982.56;1614960;87;21067;-74
2022/07/04 03:41:59;;;;;;;16.75;9.33;;;;;;;23.39;90.23;100979.57;1610425;85;21103;-74
2022/07/04 03:44:27;;;;;;;25.32;9.60;;;;;;;23.54;89.65;100983.08;1621048;88;21070;-73
2022/07/04 03:46:54;;;;;;;24.20;9.68;;;;;;;23.72;88.81;100978.79;1597784;88;21559;-74
2022/07/04 03:49:21;;;;;;;24.32;9.90;;;;;;;24.20;84.23;100980.44;1610107;89;21064;-74
2022/07/04 03:51:48;;;;;;;20.55;10.00;;;;;;;24.04;87.81;100977.59;1620337;87;21569;-74
2022/07/04 03:54:16;;;;;;;28.57;10.50;;;;;;;24.33;84.91;100976.64;1581857;89;21064;-74
2022/07/04 03:56:45;;;;;;;23.60;10.03;;;;;;;24.23;87.75;100975.86;1605091;88;21571;-74
2022/07/04 03:59:13;;;;;;;25.52;9.68;;;;;;;24.42;87.34;100977.09;1617193;89;21091;-74
2022/07/04 04:01:41;;;;;;;20.02;9.98;;;;;;;24.54;87.14;100968.05;1647219;86;21058;-73
2022/07/04 04:06:54;;;;;;;23.15;9.60;;;;;;;24.90;85.35;100971.20;1660334;86;21530;-74
2022/07/04 04:09:24;;;;;;;17.48;9.28;;;;;;;27.98;75.65;100967.89;1670014;85;21041;-74
2022/07/04 04:11:52;;;;;;;22.98;9.28;;;;;;;28.75;69.27;100968.53;1669347;85;21073;-74
2022/07/04 04:14:20;;;;;;;21.23;9.83;;;;;;;28.23;69.11;100969.14;1652549;86;21553;-74
2022/07/04 04:16:46;;;;;;;18.98;9.45;;;;;;;28.42;68.82;100971.86;1669811;85;21584;-74
2022/07/04 04:19:14;;;;;;;26.60;9.70;;;;;;;27.00;72.43;100978.03;1657537;86;21019;-73
2022/07/04 04:21:41;;;;;;;16.62;9.08;;;;;;;26.70;73.91;100971.55;1652656;85;21040;-74
2022/07/04 04:24:08;;;;;;;17.77;9.33;;;;;;;26.93;74.90;100971.27;1661557;85;21097;-74
2022/07/04 04:26:36;;;;;;;14.45;8.60;;;;;;;26.60;75.15;100961.63;1608572;89;21060;-73
2022/07/04 04:29:03;;;;;;;19.40;8.83;;;;;;;26.53;76.29;100968.84;1616591;87;21133;-74
2022/07/04 04:31:31;;;;;;;18.37;8.45;;;;;;;26.58;76.56;100967.91;1653185;86;21050;-74
2022/07/04 04:33:59;;;;;;;21.45;9.38;;;;;;;26.58;77.80;100959.98;1608310;88;21059;-74
2022/07/04 04:36:26;;;;;;;22.10;9.33;;;;;;;26.15;78.61;100962.27;1622485;87;21156;-74
2022/07/04 04:38:54;;;;;;;17.07;8.90;;;;;;;26.16;79.04;100962.11;1619012;87;21148;-74
2022/07/04 04:41:21;;;;;;;15.05;8.98;;;;;;;27.38;75.56;100954.61;1611400;89;21036;-74
2022/07/04 04:43:48;;;;;;;17.00;8.55;;;;;;;26.56;78.80;100964.57;1612490;87;21520;-74
2022/07/04 04:46:15;;;;;;;22.50;8.60;;;;;;;27.24;77.98;100965.36;1648496;86;21062;-74
2022/07/04 04:48:43;;;;;;;17.00;8.40;;;;;;;27.12;76.02;100964.01;1656885;85;21092;-74
2022/07/04 04:51:11;;;;;;;17.02;8.35;;;;;;;27.12;75.87;100956.90;1663028;85;21341;-74
2022/07/04 04:53:39;;;;;;;16.77;8.40;;;;;;;27.89;73.76;100960.98;1652009;86;21069;-74
2022/07/04 04:56:07;;;;;;;15.93;8.60;;;;;;;28.24;70.91;100962.33;1642427;86;21035;-74
2022/07/04 04:58:34;;;;;;;16.77;8.55;;;;;;;27.78;74.04;100966.94;1657464;85;21060;-74
2022/07/04 05:01:02;;;;;;;19.73;8.70;;;;;;;27.68;74.81;100962.34;1652698;85;21074;-74
2022/07/04 05:03:29;;;;;;;14.58;8.15;;;;;;;27.77;75.41;100960.48;1608318;89;21174;-75
2022/07/04 05:05:56;;;;;;;14.33;8.35;;;;;;;27.92;74.43;100965.45;1620420;87;21085;-73
2022/07/04 05:08:25;;;;;;;16.32;8.25;;;;;;;28.09;73.84;100962.74;1602436;88;21079;-74
2022/07/04 05:10:53;;;;;;;15.13;8.40;;;;;;;28.32;72.71;100968.09;1642605;86;21054;-74
2022/07/04 05:13:20;;;;;;;13.85;7.97;;;;;;;28.50;71.27;100960.74;1647121;86;21054;-74
2022/07/04 05:15:48;;;;;;;18.52;8.25;;;;;;;28.76;70.70;100964.39;1647539;86;21109;-74
2022/07/04 05:18:16;;;;;;;16.48;7.45;;;;;;;31.37;66.59;100954.52;1648740;86;21167;-74
2022/07/04 05:24:52;;;;;;;16.40;6.58;;;;;;;29.44;68.07;100958.41;1738450;82;21032;-73
2022/07/04 05:27:20;;;;;;;12.68;6.58;;;;;;;29.63;64.81;100962.37;1745019;81;21035;-73
2022/07/04 05:29:47;;;;;;;14.83;5.83;;;;;;;29.85;65.13;100964.66;1739554;82;21043;-74
2022/07/04 05:32:15;;;;;;;11.08;5.85;;;;;;;30.11;62.50;100966.34;1715919;82;21052;-73
2022/07/04 05:34:42;;;;;;;10.68;5.75;;;;;;;30.27;59.68;100962.65;1727434;82;21227;-74
2022/07/04 05:37:09;;;;;;;9.78;5.78;;;;;;;30.48;59.29;100959.74;1727635;82;21093;-74
2022/07/04 05:39:37;;;;;;;12.80;6.33;;;;;;;31.10;56.65;100961.81;1732959;82;21053;-74
2022/07/04 05:42:05;;;;;;;14.05;7.15;;;;;;;31.07;56.93;100950.73;1731338;82;21111;-74
2022/07/04 05:44:33;;;;;;;13.48;8.78;;;;;;;31.07;56.93;100950.73;1723644;82;21035;-75
2022/07/04 05:47:00;;;;;;;18.27;11.10;;;;;;;31.68;54.96;100947.50;1719830;81;21000;-74
2022/07/04 05:49:27;;;;;;;17.67;11.25;;;;;;;31.43;54.61;100953.73;1721261;82;21014;-74
2022/07/04 05:51:54;;;;;;;25.00;13.58;;;;;;;32.31;53.20;100956.19;1731004;82;21504;-73
2022/07/04 05:54:22;;;;;;;22.20;13.45;;;;;;;31.68;54.63;100955.48;1726094;82;21075;-74
2022/07/04 05:56:49;;;;;;;23.62;11.83;;;;;;;33.56;49.65;100957.53;1725585;82;21547;-73
2022/07/04 05:59:17;;;;;;;17.10;10.30;;;;;;;31.82;53.41;100953.72;1732751;82;21080;-74
2022/07/04 06:01:45;;;;;;;17.52;10.65;;;;;;;32.01;52.18;100950.34;1726923;81;21670;-74
2022/07/04 06:04:12;;;;;;;15.65;9.48;;;;;;;31.65;54.05;100949.20;1721276;81;21063;-74
2022/07/04 06:06:41;;;;;;;17.48;9.53;;;;;;;31.99;52.75;100951.53;1740608;82;21513;-73
2022/07/04 06:09:08;;;;;;;13.32;7.90;;;;;;;31.90;53.24;100949.56;1724316;82;21051;-74
2022/07/04 06:11:35;;;;;;;13.15;7.22;;;;;;;31.81;53.00;100955.54;1732338;82;21515;-73
2022/07/04 06:14:04;;;;;;;14.28;6.70;;;;;;;31.82;52.51;100944.41;1732524;82;21067;-75
2022/07/04 06:16:31;;;;;;;10.63;6.25;;;;;;;31.79;52.17;100954.09;1730037;82;21083;-73
2022/07/04 06:19:00;;;;;;;9.90;5.35;;;;;;;31.90;52.46;100953.55;1733132;82;21513;-74
2022/07/04 06:21:27;;;;;;;9.13;5.35;;;;;;;31.94;51.46;100949.48;1698648;83;21515;-73
2022/07/04 06:23:54;;;;;;;9.58;5.37;;;;;;;32.11;50.63;100951.31;1697704;83;21048;-74
2022/07/04 06:26:21;;;;;;;7.60;5.15;;;;;;;32.30;50.81;100951.05;1695362;83;21471;-72
2022/07/04 06:28:49;;;;;;;9.60;5.28;;;;;;;32.42;50.91;100946.81;1715779;83;21067;-74
2022/07/04 06:31:16;;;;;;;10.32;5.12;;;;;;;32.60;50.16;100952.09;1703519;83;21046;-74
2022/07/04 06:36:30;;;;;;;8.78;5.40;;;;;;;33.03;49.06;100947.71;1708593;82;21025;-73
2022/07/04 06:38:59;;;;;;;10.55;5.10;;;;;;;32.76;50.05;100951.70;1707696;83;21091;-74
2022/07/04 06:41:26;;;;;;;10.25;4.75;;;;;;;32.93;49.98;100942.30;1743308;80;21038;-74
2022/07/04 06:43:53;;;;;;;11.33;5.22;;;;;;;33.24;48.23;100944.88;1745233;81;21492;-75
2022/07/04 06:46:22;;;;;;;12.47;5.05;;;;;;;33.13;47.97;100948.15;1741068;81;21071;-73
2022/07/04 06:48:49;;;;;;;11.22;5.08;;;;;;;33.21;48.59;100946.61;1758969;80;20985;-73
2022/07/04 06:51:16;;;;;;;10.45;5.20;;;;;;;34.07;46.17;100944.26;1752475;80;21503;-74
2022/07/04 06:53:45;;;;;;;7.85;5.03;;;;;;;35.33;45.07;100940.45;1753210;80;21075;-75
2022/07/04 06:56:13;;;;;;;10.00;5.28;;;;;;;33.24;47.24;100952.88;1760297;80;21060;-74
2022/07/04 06:58:42;;;;;;;7.65;5.20;;;;;;;33.33;47.68;100940.12;1747747;80;21153;-75
2022/07/04 07:01:09;;;;;;;7.35;5.08;;;;;;;33.25;47.47;100949.16;1770549;80;21528;-74
2022/07/04 07:03:36;;;;;;;10.75;5.90;;;;;;;33.38;47.54;100946.20;1771173;81;21032;-75
2022/07/04 07:06:04;;;;;;;13.48;5.60;;;;;;;33.13;48.01;100944.15;1752748;81;21019;-74
2022/07/04 07:08:31;;;;;;;7.85;5.45;;;;;;;33.32;47.15;100941.98;1769487;80;21056;-74
2022/07/04 07:11:12;;;;;;;9.45;6.10;;;;;;;33.56;48.04;100941.52;1745825;80;21025;-73
2022/07/04 07:13:45;;;;;;;10.88;6.50;;;;;;;33.53;46.91;100941.44;1770585;80;21042;-74
2022/07/04 07:16:14;;;;;;;10.28;6.80;;;;;;;33.79;46.36;100938.42;1773625;80;21022;-74
2022/07/04 07:18:42;;;;;;;11.15;7.37;;;;;;;33.73;47.39;100934.73;1720542;82;21499;-73
2022/07/04 07:21:11;;;;;;;10.25;7.60;;;;;;;34.04;47.01;100937.18;1718052;82;21088;-74
2022/07/04 07:23:41;;;;;;;14.35;8.00;;;;;;;34.08;46.62;100943.21;1704840;83;21052;-75
2022/07/04 07:26:10;;;;;;;10.38;7.60;;;;;;;34.02;46.69;100954.75;1706150;83;21013;-75
2022/07/04 07:28:39;;;;;;;10.32;6.95;;;;;;;33.82;46.61;100944.17;1682488;83;21090;-74
2022/07/04 07:31:06;;;;;;;11.40;6.85;;;;;;;33.99;47.15;100943.69;1687162;83;21186;-73
2022/07/04 07:33:35;;;;;;;10.93;6.97;;;;;;;34.29;46.56;100948.00;1688907;83;21019;-73
2022/07/04 07:36:04;;;;;;;9.28;6.65;;;;;;;34.09;46.12;100948.87;1688695;83;21015;-73
2022/07/04 07:38:31;;;;;;;10.25;6.85;;;;;;;34.10;44.84;100951.83;1689694;83;21051;-75
2022/07/04 07:40:58;;;;;;;8.40;6.20;;;;;;;33.81;44.38;100944.38;1687740;83;21020;-73
2022/07/04 07:43:26;;;;;;;10.25;6.90;;;;;;;33.85;45.16;100943.73;1686852;83;21055;-73
2022/07/04 07:45:53;;;;;;;8.45;5.40;;;;;;;34.08;43.49;100945.88;1687595;83;21035;-72
2022/07/04 07:48:20;;;;;;;6.60;5.75;;;;;;;35.89;41.88;100942.66;1690825;83;21040;-73
2022/07/04 07:50:48;;;;;;;7.12;5.72;;;;;;;34.29;43.37;100941.31;1685423;82;21047;-72
2022/07/04 07:53:16;;;;;;;9.25;5.75;;;;;;;36.18;42.30;100939.72;1688512;83;21035;-73
2022/07/04 07:55:43;;;;;;;10.95;6.17;;;;;;;37.23;39.58;100935.63;1690137;83;21188;-72
2022/07/04 07:58:10;;;;;;;9.75;6.03;;;;;;;37.68;38.79;100947.09;1685865;83;21087;-73
2022/07/04 08:00:37;;;;;;;8.20;6.05;;;;;;;37.82;38.07;100932.86;1687755;83;21059;-73
2022/07/04 08:05:52;;;;;;;14.30;7.30;;;;;;;34.62;43.50;100931.73;1686232;83;21405;-72
2022/07/04 08:08:19;;;;;;;9.18;6.97;;;;;;;34.44;44.02;100932.47;1705743;82;21504;-73
2022/07/04 08:10:47;;;;;;;8.13;6.53;;;;;;;34.55;43.51;100930.14;1702349;82;21088;-72
2022/07/04 08:13:14;;;;;;;7.97;6.83;;;;;;;34.64;44.17;100931.53;1724090;81;21044;-72
2022/07/04 08:15:43;;;;;;;8.70;6.80;;;;;;;34.68;43.59;100922.06;1667606;84;21054;-72
2022/07/04 08:18:10;;;;;;;8.60;6.87;;;;;;;34.61;42.89;100924.77;1700363;83;21035;-72
2022/07/04 08:20:37;;;;;;;12.43;6.50;;;;;;;34.46;44.42;100921.05;1663652;85;21602;-72
2022/07/04 08:23:04;;;;;;;8.05;6.25;;;;;;;34.64;44.55;100918.16;1682115;84;21075;-72
2022/07/04 08:25:33;;;;;;;9.78;6.22;;;;;;;34.99;43.98;100916.36;1685996;83;21488;-73
2022/07/04 08:28:01;;;;;;;7.37;6.30;;;;;;;34.96;42.53;100922.13;1722560;82;21083;-72
2022/07/04 08:30:29;;;;;;;9.08;6.20;;;;;;;34.89;43.30;100920.33;1685119;84;21075;-73
2022/07/04 08:32:56;;;;;;;8.73;5.87;;;;;;;34.95;43.23;100915.97;1697044;83;21079;-73
2022/07/04 08:35:23;;;;;;;9.15;6.15;;;;;;;35.04;43.33;100917.87;1705445;82;21060;-73
2022/07/04 08:37:53;;;;;;;12.43;6.75;;;;;;;35.08;44.25;100923.89;1702029;83;21098;-73
2022/07/04 08:40:23;;;;;;;8.65;6.95;;;;;;;38.62;37.79;100923.03;1704258;83;21037;-74
2022/07/04 08:42:51;;;;;;;11.22;7.37;;;;;;;37.75;38.63;100924.11;1710395;83;21062;-73
2022/07/04 08:45:23;;;;;;;10.95;7.22;;;;;;;37.85;38.15;100920.81;1712980;83;21099;-73
2022/07/04 08:47:55;;;;;;;9.33;7.27;;;;;;;34.99;41.92;100911.81;1708110;82;21025;-74
2022/07/04 08:50:33;;;;;;;12.88;6.92;;;;;;;34.99;42.71;100898.97;1703132;83;21095;-74
2022/07/04 08:53:15;;;;;;;10.80;6.72;;;;;;;35.16;41.63;100903.25;1705089;83;21086;-74
2022/07/04 08:58:29;;;;;;;9.95;6.20;;;;;;;35.13;40.92;100901.81;1692385;83;21142;-74
2022/07/04 09:01:00;;;;;;;11.55;6.08;;;;;;;34.88;40.71;100898.65;1708666;83;21140;-73
2022/07/04 09:03:28;;;;;;;9.13;6.55;;;;;;;35.17;40.70;100895.01;1701500;83;21070;-72
2022/07/04 09:05:57;;;;;;;7.28;5.90;;;;;;;36.02;40.40;100900.12;1708877;83;21103;-73
2022/07/04 09:08:25;;;;;;;13.50;6.28;;;;;;;35.28;40.38;100891.61;1705426;83;21001;-72
2022/07/04 09:10:53;;;;;;;12.93;6.55;;;;;;;35.19;41.31;100897.47;1702265;83;21059;-72
2022/07/04 09:13:21;;;;;;;10.00;6.60;;;;;;;35.45;40.75;100891.83;1701391;83;21075;-72
2022/07/04 09:15:51;;;;;;;7.92;6.58;;;;;;;35.79;41.97;100900.33;1683921;83;21135;-72
2022/07/04 09:18:31;;;;;;;7.92;6.80;;;;;;;36.35;41.31;100897.52;1721149;82;21076;-73
2022/07/04 09:21:06;;;;;;;8.05;6.33;;;;;;;36.30;39.43;100899.02;1718965;82;21550;-73
2022/07/04 09:23:42;;;;;;;7.12;6.25;;;;;;;38.16;38.25;100901.24;1718486;82;21039;-72
2022/07/04 09:26:16;;;;;;;8.48;6.65;;;;;;;38.59;37.21;100897.98;1720231;82;21024;-72
2022/07/04 09:28:57;;;;;;;10.32;6.45;;;;;;;38.45;37.39;100898.80;1737181;82;21091;-72
2022/07/04 09:31:28;;;;;;;10.70;6.30;;;;;;;38.62;37.15;100897.48;1735272;82;21519;-72
2022/07/04 09:34:03;;;;;;;10.48;6.62;;;;;;;35.98;39.73;100897.61;1724510;82;21153;-72
2022/07/04 09:36:36;;;;;;;10.68;6.45;;;;;;;35.51;40.49;100899.50;1730686;82;21027;-73
2022/07/04 09:39:14;;;;;;;7.12;6.25;;;;;;;35.40;39.89;100898.89;1721006;82;21047;-72
2022/07/04 09:42:03;;;;;;;11.18;6.37;;;;;;;38.34;36.51;100896.18;1724835;82;21590;-72
2022/07/04 09:44:45;;;;;;;6.97;6.08;;;;;;;36.18;38.86;100896.02;1725407;82;21048;-71
2022/07/04 09:47:29;;;;;;;8.20;6.12;;;;;;;35.93;39.99;100892.09;1713735;82;21162;-72
2022/07/04 09:50:15;;;;;;;7.97;5.70;;;;;;;35.76;40.33;100889.23;1718891;81;20992;-73
2022/07/04 09:53:00;;;;;;;9.35;6.50;;;;;;;36.02;40.97;100885.39;1716265;82;21027;-72
2022/07/04 09:55:39;;;;;;;9.13;6.25;;;;;;;38.96;37.43;100892.60;1693170;83;21598;-72
2022/07/04 09:58:13;;;;;;;8.88;6.37;;;;;;;36.53;39.25;100890.73;1717131;83;21574;-72
2022/07/04 10:00:46;;;;;;;9.70;6.40;;;;;;;36.30;39.83;100889.64;1702295;82;21088;-72
2022/07/04 10:03:32;;;;;;;13.40;6.85;;;;;;;36.35;38.94;100889.48;1714039;82;21067;-72
2022/07/04 10:06:12;;;;;;;7.65;6.47;;;;;;;36.12;39.48;100889.68;1730070;82;21523;-72
2022/07/04 10:08:41;;;;;;;8.28;6.80;;;;;;;36.10;40.13;100885.88;1720801;82;21036;-72
2022/07/04 10:11:08;;;;;;;12.50;6.92;;;;;;;36.08;38.55;100889.31;1738320;82;21055;-72
2022/07/04 10:13:38;;;;;;;9.90;6.78;;;;;;;36.33;38.89;100879.51;1714215;82;21087;-72
2022/07/04 10:16:07;;;;;;;7.17;6.47;;;;;;;36.28;38.86;100875.66;1728534;82;21094;-73
2022/07/04 10:18:35;;;;;;;10.88;6.55;;;;;;;36.40;38.18;100878.36;1716710;82;22176;-73
2022/07/04 10:21:03;;;;;;;9.30;6.55;;;;;;;36.66;38.32;100877.16;1729510;82;21118;-72
2022/07/04 10:23:31;;;;;;;11.68;6.75;;;;;;;36.78;38.60;100871.80;1720987;82;21040;-71
2022/07/04 10:25:59;;;;;;;12.28;5.95;;;;;;;36.87;38.07;100873.59;1720917;82;21076;-71
2022/07/04 10:28:26;;;;;;;8.73;5.75;;;;;;;36.45;37.82;100870.96;1721810;82;21091;-74
2022/07/04 10:30:57;;;;;;;9.23;6.33;;;;;;;36.26;38.19;100866.22;1728523;82;21052;-73
2022/07/04 10:33:29;;;;;;;7.87;6.00;;;;;;;36.34;37.84;100864.54;1725286;82;21039;-72
2022/07/04 10:36:01;;;;;;;8.48;6.35;;;;;;;36.41;37.85;100861.75;1728391;82;21501;-74
2022/07/04 10:38:49;;;;;;;9.98;6.12;;;;;;;38.49;35.53;100853.41;1730667;82;21063;-73
2022/07/04 10:41:20;;;;;;;9.90;6.00;;;;;;;39.40;33.82;100861.16;1723000;82;21000;-72
2022/07/04 10:44:00;;;;;;;8.90;6.10;;;;;;;39.84;34.20;100853.56;1715884;82;21038;-72
2022/07/04 10:46:31;;;;;;;6.87;6.03;;;;;;;39.91;33.95;100850.17;1726497;82;21089;-73
2022/07/04 10:49:17;;;;;;;7.40;6.13;;;;;;;38.66;35.79;100842.66;1725882;82;21027;-72
2022/07/04 10:51:55;;;;;;;7.47;5.75;;;;;;;38.01;36.04;100839.94;1727973;82;21107;-72
2022/07/04 10:54:34;;;;;;;10.98;5.97;;;;;;;38.00;36.17;100835.11;1726838;82;21515;-72
2022/07/04 10:57:20;;;;;;;7.22;6.17;;;;;;;38.15;36.59;100841.29;1731967;82;21561;-73
2022/07/04 11:00:00;;;;;;;11.18;5.92;;;;;;;37.94;35.86;100842.80;1716003;82;21657;-73
2022/07/04 11:02:32;;;;;;;10.30;5.58;;;;;;;37.78;35.18;100840.89;1732192;82;21130;-74
2022/07/04 11:05:07;;;;;;;8.30;5.60;;;;;;;37.58;35.83;100834.06;1719292;82;21091;-73
2022/07/04 11:07:43;;;;;;;6.22;5.50;;;;;;;37.64;35.80;100835.80;1728069;82;21031;-74
2022/07/04 11:13:00;;;;;;;6.70;5.97;;;;;;;37.45;35.38;100828.43;1728977;82;21087;-74
2022/07/04 11:15:35;;;;;;;10.50;6.17;;;;;;;37.93;35.14;100826.90;1727831;82;21059;-74
2022/07/04 11:18:13;;;;;;;6.92;6.10;;;;;;;38.42;34.17;100823.16;1733738;82;21044;-74
2022/07/04 11:20:44;;;;;;;10.23;5.95;;;;;;;38.32;34.75;100815.74;1714364;82;21180;-74
2022/07/04 11:23:14;;;;;;;8.55;6.05;;;;;;;38.58;34.83;100816.97;1738059;82;21094;-75
2022/07/04 11:25:45;;;;;;;6.70;5.72;;;;;;;38.56;34.28;100823.13;1725066;82;21075;-74
2022/07/04 11:28:29;;;;;;;9.83;6.20;;;;;;;38.70;34.00;100818.22;1716891;82;21465;-74
2022/07/04 11:31:02;;;;;;;11.75;5.90;;;;;;;38.70;33.74;100814.73;1732241;82;21045;-74
2022/07/04 11:33:33;;;;;;;9.88;5.85;;;;;;;38.70;33.88;100813.38;1721162;82;21095;-73
2022/07/04 11:36:14;;;;;;;9.35;6.58;;;;;;;39.02;33.66;100816.27;1726805;82;21039;-74
2022/07/04 11:38:56;;;;;;;8.48;6.20;;;;;;;39.32;33.80;100813.13;1736863;82;21028;-74
2022/07/04 11:47:18;;;;;;;7.72;6.15;;;;;;;38.53;34.00;100799.97;1717853;82;21062;-74
2022/07/04 11:49:55;;;;;;;8.23;5.70;;;;;;;38.64;34.22;100801.19;1722155;82;21211;-74
2022/07/04 11:52:26;;;;;;;9.13;5.92;;;;;;;39.07;34.88;100800.16;1736294;82;21037;-74
2022/07/04 11:54:54;;;;;;;11.08;5.72;;;;;;;38.30;35.56;100806.30;1718986;82;21087;-74
2022/07/04 11:57:25;;;;;;;9.55;6.10;;;;;;;37.68;35.28;100797.98;1723999;82;21534;-73